Tiempo atmosférico en la estación meteorológica de Hellín, Albacete (520 m.)



Fecha
DESCASC
Temp. máxima en grados centígrados (hora)
DESCASC
Temp. mínima en grados centígrados (hora)
DESCASC
Temp. media en grados centígrados
DESCASC
Racha de viento máxima en m/sg (hora)
DESCASC
Velocidad máxima media en intervalos de 10 minutos(hora)
DESCASC
Precipitaciones diarias en mm
DESCASC
Precipitaciones de 00:00 a 06:00 en mm
DESCASC
Precipitaciones de 06:00 a 12:00 en mm
DESCASC
Precipitaciones de 12:00 a 18:00 en mm
DESCASC
Precipitaciones de 18:00 a 24:00 en mm
DESCASC
16-04-2019 23.3 (17:00) 10.8 (07:40) 17 9.17 (18:30) 4.72 (18:30) 0 0 0 0 0
15-04-2019 24.1 (15:40) 13.1 (23:40) 18.6 7.22 (14:50) 3.61 (12:40) 0 0 0 0 0
14-04-2019 25.5 (16:40) 10.9 (00:00) 18.2 7.22 (05:10) 4.72 (05:20) 0 0 0 0 0
13-04-2019 21.6 (17:00) 6 (00:00) 13.8 10.56 (15:30) 4.72 (12:10) 0 0 0 0 0
12-04-2019 17.4 (17:40) 5.5 (00:00) 11.4 13.33 (12:10) 7.22 (12:20) 0 0 0 0 0
11-04-2019 16.6 (16:50) 5.8 (00:00) 11.2 12.78 (14:00) 6.67 (13:50) 0 0 0 0 0
10-04-2019 14.1 (15:50) 7.5 (00:00) 10.8 14.44 (16:40) 7.78 (16:40) 2 0 0 1.7 0.3
09-04-2019 15.3 (15:50) 7.4 (00:00) 11.4 14.44 (16:50) 9.17 (16:50) 5.4 3.8 0 0.8 0.8
08-04-2019 17.2 (14:20) 7.2 (00:00) 12.2 11.39 (17:10) 6.39 (17:30) 0 0 0 0 0
07-04-2019 15.1 (17:10) 4.7 (00:00) 9.9 16.39 (11:30) 8.89 (16:00) 3.3 0.2 2.7 0.4 0
06-04-2019 13 (15:30) 4.8 (00:00) 8.9 15.83 (14:00) 9.17 (14:00) 0.8 0.4 0 0.3 0.1
05-04-2019 14.3 (12:50) 4.9 (00:00) 9.6 13.89 (20:00) 9.17 (20:00) 1.9 0 0 1.8 0.1
04-04-2019 16.3 (18:20) 4.6 (00:00) 10.4 8.89 (19:40) 5 (05:40) 0 0 0 0 0
03-04-2019 20.7 (16:30) 7.1 (00:00) 13.9 12.22 (15:40) 6.67 (16:40) 0 0 0 0 0
02-04-2019 18.9 (18:40) 8.9 (00:00) 13.9 6.11 (20:00) 3.33 (15:10) 5.3 0.7 0 0 4.6
01-04-2019 15.8 (13:30) 9.4 (00:00) 12.6 6.39 (19:40) 3.61 (16:50) 9.5 0 0 0 9.5
31-03-2019 10.5 (19:10) 6.7 (00:00) 8.6 8.06 (21:40) 4.17 (21:40) 21.5 1.7 10.1 9.7 0
30-03-2019 17.3 (16:00) 3.9 (00:00) 10.6 9.17 (17:30) 5 (17:30) 0 0 0 0 0
29-03-2019 15.4 (16:40) 2.4 (00:00) 8.9 9.17 (14:30) 3.89 (14:40) 0 0 0 0 0
28-03-2019 16.9 (16:20) 2.6 (00:00) 9.7 8.33 (17:10) 4.44 (17:20) 0 0 0 0 0
27-03-2019 17 (16:10) 2.2 (00:00) 9.6 8.61 (14:30) 3.61 (17:30) 0 0 0 0 0
26-03-2019 18 (15:10) 6.3 (00:00) 12.2 10.83 (10:20) 5.83 (10:50) 0 0 0 0 0
25-03-2019 21.4 (16:10) 6.2 (00:00) 13.8 6.67 (19:20) 3.89 (19:00) 0 0 0 0 0
24-03-2019 19.4 (15:50) 4.1 (00:00) 11.7 8.33 (16:40) 3.61 (17:40) 0 0 0 0 0
23-03-2019 13.7 (18:10) 7.3 (00:00) 10.5 5.56 (13:50) 3.06 (11:20) 0 0 0 0 0
22-03-2019 16.1 (14:30) 2.8 (00:00) 9.5 10.28 (15:30) 5.56 (16:30) 0 0 0 0 0
21-03-2019 13.9 (15:10) 1.9 (00:00) 7.9 9.72 (15:40) 5 (15:30) 0 0 0 0 0
20-03-2019 13.4 (15:30) 4.2 (00:00) 8.8 8.33 (15:50) 2.78 (22:20) 0 0 0 0 0
19-03-2019 15.1 (14:50) 7 (00:00) 11.1 10 (13:10) 5.56 (13:10) 0 0 0 0 0

Gráficas

Temp. máximas Temp. mínimas Temp. medias Precipitaciones Rachas de viento máximas Velocidades máximas media en intervalos de 10 minutos

Datos horarios

Fecha y hora oficial Temperatura (ºC) Velocidad del viento (km/h) Dirección del viento Racha (km/h) Dirección de racha Precipitación (mm) Presión (hPa) Tendencia (hPa) Humedad (%)
2019-04-17 23:00:00 12.5 3 Norte 6 Norte 0 945.3 1.9 76
2019-04-17 22:00:00 13.4 3 Sudeste 14 Sur 0 944.3 0.9 72
2019-04-17 21:00:00 14.2 3 Sur 21 Sur 0 943.5 0.4 65
2019-04-17 20:00:00 15.7 10 Sudeste 21 Sur 0 943.4 -0.2 54
2019-04-17 19:00:00 16.9 10 Sudeste 25 Sudeste 0 943.4 -1 47
2019-04-17 18:00:00 17.9 15 Sudeste 31 Sudeste 0 943.1 -1.9 44
2019-04-17 17:00:00 19.3 10 Este 32 Este 0 943.6 -2.2 44
2019-04-17 16:00:00 18.9 18 Sudeste 28 Este 0 944.4 -2.1 46
2019-04-17 15:00:00 19.1 12 Este 29 Este 0 945 -2 47
2019-04-17 14:00:00 17.5 11 Este 31 Sudeste 0 945.8 -1.6 53
2019-04-17 13:00:00 16.5 13 Este 26 Nordeste 0 946.5 -1.1 58
2019-04-17 12:00:00 14.8 11 Este 24 Este 0 947 -0.9 66
2019-04-17 11:00:00 12.8 12 Este 21 Este 0 947.4 -0.4 75
2019-04-17 10:00:00 12 11 Este 19 Este 0 947.6 0.3 82
2019-04-17 09:00:00 11.6 6 Nordeste 15 Este 0 947.9 0.3 90
2019-04-17 08:00:00 11.2 4 Nordeste 13 Este 0 947.8 0.1 91
2019-04-17 07:00:00 11.3 4 Este 13 Nordeste 0 947.3 -1 91
2019-04-17 06:00:00 11.2 3 Nordeste 14 Este 0 947.6 -1.1 93
2019-04-17 05:00:00 11.2 5 Este 14 Este 0 947.7 -1.3 95
2019-04-17 04:00:00 11.2 6 Este 16 Este 0 948.3 -0.8 97
2019-04-17 03:00:00 11.2 9 Este 19 Este 0 948.7 -0.4 97
2019-04-17 02:00:00 11.1 6 Este 17 Este 0 949 0 97
2019-04-17 01:00:00 11.2 6 Este 14 Este 0 949.1 0.5 96
2019-04-17 00:00:00 11.7 5 Este 14 Este 0 949.1 1.6 95
2019-04-16 23:00:00 12.5 7 Este 17 Este 0 949 2.2 89
2019-04-16 22:00:00 13.4 13 Este 26 Este 0 948.6 2.1 78
2019-04-16 21:00:00 14.5 13 Este 29 Sudeste 0 947.5 1.2 67
2019-04-16 20:00:00 17 13 Este 26 Este 0 946.8 0.3 56
2019-04-16 19:00:00 19.5 13 Este 33 Este 0 946.5 -0.6 44
2019-04-16 18:00:00 22 11 Nordeste 28 Este 0 946.3 -1.6 37
2019-04-16 17:00:00 22.7 12 Este 27 Este 0 946.5 -1.7 29
2019-04-16 16:00:00 22.3 10 Nordeste 23 Nordeste 0 947.1 -1.5 29
2019-04-16 15:00:00 21 8 Nordeste 18 Nordeste 0 947.9 -1.3 31
2019-04-16 14:00:00 19.4 4 Norte 17 Nordeste 0 948.2 -1.1 37
2019-04-16 13:00:00 18.6 5 Norte 19 Norte 0 948.6 -0.6 43
2019-04-16 12:00:00 17.4 4 Sudoeste 20 Sudoeste 0 949.2 0.2 50
2019-04-16 11:00:00 15.9 8 Sudoeste 17 Sudoeste 0 949.3 1.1 59
2019-04-16 10:00:00 14.2 6 Sudoeste 15 Oeste 0 949.2 1.3 68
2019-04-16 09:00:00 12.7 4 Oeste 24 Sudoeste 0 949 1.1 72
2019-04-16 08:00:00 10.9 12 Sudoeste 18 Sudoeste 0 948.2 0.7 75
2019-04-16 07:00:00 11.4 2 Noroeste 28 Oeste 0 947.9 0.8 72
2019-04-16 06:00:00 12.3 7 Sudoeste 26 Sudoeste 0 947.9 1.5 72
2019-04-16 05:00:00 12.6 7 Sudoeste 22 Sudoeste 0 947.5 0.8 72
2019-04-16 04:00:00 13.8 12 Sudoeste 24 Sudoeste 0 947.1 0.6 67
2019-04-16 03:00:00 14.6 15 Sudoeste 28 Sudoeste 0 946.4 0.1 66
2019-04-16 02:00:00 12 0 Calma 9 Noroeste 0 946.7 1.1 87
2019-04-16 01:00:00 12 3 Sur 6 Sur 0 946.5 1.4 84
2019-04-16 00:00:00 13.1 0 Calma 10 Este 0 946.3 2.1 81
2019-04-15 23:00:00 14.2 4 Sudeste 11 Nordeste 0 945.6 2.5 72
2019-04-15 22:00:00 16 5 Nordeste 15 Este 0 945.1 2.1 66
2019-04-15 21:00:00 17.3 6 Este 21 Este 0 944.2 1.3 60
2019-04-15 20:00:00 19.3 11 Este 19 Este 0 943.1 0.1 52
2019-04-15 19:00:00 22 11 Este 21 Este 0 943 -0.2 45
2019-04-15 18:00:00 22.8 10 Este 23 Este 0 942.9 -0.8 42
2019-04-15 17:00:00 23.7 12 Este 24 Nordeste 0 943 -1.3 40
2019-04-15 16:00:00 24 11 Este 22 Este 0 943.2 -1.6 36
2019-04-15 15:00:00 23.1 10 Este 26 Este 0 943.7 -1.2 34
2019-04-15 14:00:00 23.6 10 Nordeste 22 Este 0 944.3 -1.2 36
2019-04-15 13:00:00 22.4 10 Este 26 Este 0 944.8 -0.7 39
2019-04-15 12:00:00 20.8 10 Nordeste 21 Nordeste 0 944.9 -0.6 51
2019-04-15 11:00:00 18.9 6 Norte 12 Norte 0 945.5 0.4 58
2019-04-15 10:00:00 18.2 2 Nordeste 6 Noroeste 0 945.5 0.5 62
2019-04-15 09:00:00 15.2 3 Noroeste 8 Oeste 0 945.5 0.6 70
2019-04-15 08:00:00 13.5 5 Noroeste 7 Noroeste 0 945.1 -0.5 70
2019-04-15 07:00:00 14.1 5 Oeste 15 Oeste 0 945 -0.5 66
2019-04-15 06:00:00 14.6 5 Noroeste 10 Oeste 0 944.9 -1.2 63
2019-04-15 05:00:00 14.7 0 Calma 13 Oeste 0 945.6 -0.9 60
2019-04-15 04:00:00 15.4 4 Oeste 15 Oeste 0 945.5 -1.6 57
2019-04-15 03:00:00 15.9 9 Oeste 15 Oeste 0 946.1 -0.6 56
2019-04-15 02:00:00 15.8 7 Oeste 14 Oeste 0 946.5 -0.3 54
2019-04-15 01:00:00 16.6 9 Oeste 17 Oeste 0 947.1 0.7 52
2019-04-15 00:00:00 16.8 4 Oeste 8 Sudoeste 0 946.7 1.3 49
2019-04-14 23:00:00 17.6 4 Oeste 12 Sudoeste 0 946.8 2.1 45
2019-04-14 22:00:00 19.6 7 Sudoeste 16 Sudoeste 0 946.4 1.8 40
2019-04-14 21:00:00 21.4 9 Sudoeste 23 Sudoeste 0 945.4 0.5 35
2019-04-14 20:00:00 23.3 13 Oeste 21 Oeste 0 944.7 -0.4 33
2019-04-14 19:00:00 24.4 9 Oeste 21 Noroeste 0 944.6 -1.2 32
2019-04-14 18:00:00 24.7 9 Oeste 22 Oeste 0 944.9 -1.5 31
2019-04-14 17:00:00 24.7 6 Oeste 19 Oeste 0 945.1 -1.9 30
2019-04-14 16:00:00 24.9 3 Sudeste 26 Este 0 945.8 -2 30
2019-04-14 15:00:00 24.2 6 Este 17 Este 0 946.4 -1.8 31
2019-04-14 14:00:00 22.3 4 Oeste 23 Noroeste 0 947 -1.3 32
2019-04-14 13:00:00 21.3 12 Oeste 23 Oeste 0 947.8 -0.3 35
2019-04-14 12:00:00 20.4 8 Sudoeste 19 Oeste 0 948.2 0.1 39
2019-04-14 11:00:00 18.7 3 Oeste 13 Sur 0 948.3 0.3 42
2019-04-14 10:00:00 17.1 9 Sur 16 Sudoeste 0 948.1 0.7 46
2019-04-14 09:00:00 14 5 Oeste 12 Sudoeste 0 948.1 0.6 53
2019-04-14 08:00:00 11.1 4 Oeste 14 Sudoeste 0 948 0.5 55
2019-04-14 07:00:00 11.4 9 Sur 20 Sudoeste 0 947.4 -0.6 51
2019-04-14 06:00:00 13.5 14 Sudoeste 26 Sudoeste 0 947.5 -0.8 47
2019-04-14 05:00:00 13.5 12 Sudoeste 22 Sudoeste 0 947.5 -1.2 50
2019-04-14 04:00:00 12.7 10 Sudoeste 17 Sudoeste 0 948 -1 53
2019-04-14 03:00:00 11.7 0 Calma 9 Sudoeste 0 948.3 -0.7 53
2019-04-14 02:00:00 12 0 Calma 4 Oeste 0 948.7 0.1 49
2019-04-14 01:00:00 12.3 2 Oeste 5 Oeste 0 949 0.8 41
2019-04-14 00:00:00 13 0 Calma 9 Oeste 0 949 1.6 35
2019-04-13 23:00:00 14.9 8 Oeste 13 Sudoeste 0 948.6 1.9 31
2019-04-13 22:00:00 16.2 10 Oeste 14 Sudoeste 0 948.2 1.7 28
2019-04-13 21:00:00 17.2 6 Oeste 15 Oeste 0 947.4 0.7 26
2019-04-13 20:00:00 19.9 9 Oeste 23 Sudoeste 0 946.7 0 24
2019-04-13 19:00:00 20.9 13 Oeste 26 Oeste 0 946.5 -0.5 24
2019-04-13 18:00:00 21.2 13 Oeste 30 Oeste 0 946.7 -1.1 24
2019-04-13 17:00:00 21.4 12 Sudoeste 33 Oeste 0 946.7 -1.3 25
2019-04-13 16:00:00 20.7 15 Oeste 38 Oeste 0 947 -1.7 25
2019-04-13 15:00:00 20.2 13 Oeste 31 Oeste 0 947.8 -1.2 26
2019-04-13 14:00:00 19.2 14 Oeste 28 Oeste 0 948 -1 27
2019-04-13 13:00:00 18.2 14 Sudoeste 30 Oeste 0 948.7 -0.3 31
2019-04-13 12:00:00 17 16 Oeste 30 Sudoeste 0 949 0.5 33
2019-04-13 11:00:00 15.4 10 Oeste 23 Sudoeste 0 949 1.1 42
2019-04-13 10:00:00 13.2 12 Sudoeste 23 Sudoeste 0 949 1.4 46
2019-04-13 09:00:00 9.9 0 Calma 9 Este 0 948.5 1.6 56
2019-04-13 08:00:00 6.1 0 Calma 8 Noroeste 0 947.9 0.7 59
2019-04-13 07:00:00 7.3 3 Oeste 20 Sudoeste 0 947.6 0.4 54
2019-04-13 06:00:00 8.1 13 Oeste 20 Oeste 0 946.9 -0.7 53
2019-04-13 05:00:00 8 9 Oeste 14 Oeste 0 947.2 -0.6 52
2019-04-13 04:00:00 9.2 7 Oeste 17 Oeste 0 947.2 -0.4 47
2019-04-13 03:00:00 9.6 13 Oeste 24 Oeste 0 947.6 0.5 46
2019-04-13 02:00:00 10.9 10 Oeste 25 Sudoeste 0 947.8 0.7 42
2019-04-13 01:00:00 11.2 12 Oeste 24 Sudoeste 0 947.6 0.7 42
2019-04-13 00:00:00 11.2 8 Oeste 15 Oeste 0 947.1 0.8 42
2019-04-12 23:00:00 12.2 6 Sudoeste 15 Sudoeste 0 947.1 1.2 38
2019-04-12 22:00:00 12.2 9 Sudoeste 13 Sudoeste 0 946.9 0.9 38
2019-04-12 21:00:00 14.3 7 Oeste 23 Oeste 0 946.3 0.3 34
2019-04-12 20:00:00 16 13 Sudoeste 31 Sudoeste 0 945.9 0 32
2019-04-12 19:00:00 16.7 16 Oeste 33 Oeste 0 946 -0.3 32
2019-04-12 18:00:00 17.1 19 Sudoeste 39 Oeste 0 946 -0.8 32
2019-04-12 17:00:00 17.1 19 Sudoeste 37 Sudoeste 0 945.9 -1 33
2019-04-12 16:00:00 16.6 19 Oeste 40 Sudoeste 0 946.3 -1 34
2019-04-12 15:00:00 16.5 19 Sudoeste 39 Oeste 0 946.8 -1 36
2019-04-12 14:00:00 15.1 21 Oeste 40 Oeste 0 946.9 -0.6 37
2019-04-12 13:00:00 14.2 24 Oeste 48 Sudoeste 0 947.3 0 42
2019-04-12 12:00:00 13.1 23 Sudoeste 39 Oeste 0 947.8 0.7 46
2019-04-12 11:00:00 10.6 17 Sudoeste 29 Sudoeste 0 947.5 0.5 55
2019-04-12 10:00:00 9.5 15 Oeste 28 Oeste 0 947.3 0.4 59
2019-04-12 09:00:00 7.9 8 Oeste 20 Sudoeste 0 947.1 0.6 65
2019-04-12 08:00:00 6.3 12 Sudoeste 21 Oeste 0 947 0.1 71
2019-04-12 07:00:00 6 10 Oeste 23 Sudoeste 0 946.9 0 69
2019-04-12 06:00:00 7.2 13 Sudoeste 22 Oeste 0 946.5 -0.7 66
2019-04-12 05:00:00 6.8 14 Oeste 27 Oeste 0 946.9 -0.9 65
2019-04-12 04:00:00 8.1 21 Oeste 28 Oeste 0 946.9 -0.4 59
2019-04-12 03:00:00 8.6 16 Oeste 26 Oeste 0 947.2 0.2 55
2019-04-12 02:00:00 9.4 13 Oeste 24 Oeste 0 947.8 1.1 51
2019-04-12 01:00:00 10.5 17 Oeste 33 Oeste 0 947.3 0.8 45
2019-04-12 00:00:00 10.8 12 Sudoeste 26 Sudoeste 0 947 1.2 44
2019-04-11 23:00:00 11.2 12 Sudoeste 24 Sudoeste 0 946.7 1.2 44
2019-04-11 22:00:00 11.6 10 Sudoeste 28 Sudoeste 0 946.5 0.9 43
2019-04-11 21:00:00 12.7 13 Sudoeste 30 Sur 0 945.8 0.3 39
2019-04-11 20:00:00 13.8 17 Sudoeste 40 Sudoeste 0 945.5 -0.1 37
2019-04-11 19:00:00 14.9 21 Sudoeste 37 Sudoeste 0 945.6 -0.2 36
2019-04-11 18:00:00 15 18 Sudoeste 31 Sudoeste 0 945.5 -0.7 36
2019-04-11 17:00:00 15.9 19 Sudoeste 41 Sudoeste 0 945.6 -0.6 35
2019-04-11 16:00:00 15.8 18 Sudoeste 40 Sudoeste 0 945.8 -0.8 39
2019-04-11 15:00:00 14.6 21 Oeste 41 Sudoeste 0 946.2 -0.5 43
2019-04-11 14:00:00 13.9 23 Sudoeste 46 Sudoeste 0 946.2 -0.6 48
2019-04-11 13:00:00 12.9 14 Sudoeste 40 Sudoeste 0 946.6 -0.2 51
2019-04-11 12:00:00 11.2 18 Sudoeste 37 Sudoeste 0 946.7 0.3 59
2019-04-11 11:00:00 9.9 20 Sudoeste 34 Oeste 0 946.8 0.8 66
2019-04-11 10:00:00 8.6 19 Oeste 36 Oeste 0 946.8 1.3 71
2019-04-11 09:00:00 7.4 15 Oeste 32 Sudoeste 0 946.4 1 78
2019-04-11 08:00:00 5.9 12 Oeste 24 Sudoeste 0 946 0.9 83
2019-04-11 07:00:00 6.1 9 Oeste 25 Oeste 0 945.5 0.1 82
2019-04-11 06:00:00 7 12 Oeste 36 Oeste 0 945.4 0 79
2019-04-11 05:00:00 7.4 13 Oeste 32 Oeste 0 945.1 -0.4 79
2019-04-11 04:00:00 7.3 14 Oeste 27 Oeste 0 945.4 -0.3 78
2019-04-11 03:00:00 7.9 10 Oeste 32 Sudoeste 0 945.4 0 76
2019-04-11 02:00:00 8.1 15 Oeste 29 Oeste 0 945.5 0.2 76
2019-04-11 01:00:00 8.1 14 Sudoeste 28 Sudoeste 0 945.7 0.6 77
2019-04-11 00:00:00 7.8 16 Sudoeste 27 Oeste 0 945.4 1.2 78
2019-04-10 23:00:00 8.1 14 Sudoeste 26 Sudoeste 0 945.3 1.4 77
2019-04-10 22:00:00 8.4 18 Sudoeste 33 Sudoeste 0 945.1 1.9 77
2019-04-10 21:00:00 8.7 17 Sudoeste 33 Sudoeste 0 944.2 1 75
2019-04-10 20:00:00 9.3 13 Oeste 24 Sudoeste 0.3 943.9 0.4 75
2019-04-10 19:00:00 10.4 9 Sur 19 Sudeste 0 943.2 0.1 81
2019-04-10 18:00:00 10 8 Sur 36 Oeste 0.7 943.2 -0.2 82
2019-04-10 17:00:00 8.7 15 Oeste 52 Oeste 1 943.5 -0.3 75
2019-04-10 16:00:00 10.9 17 Oeste 34 Oeste 0 943.1 -1 52
2019-04-10 15:00:00 12 15 Sudoeste 37 Sudoeste 0 943.4 -0.8 56
2019-04-10 14:00:00 11.6 19 Sudoeste 41 Sudoeste 0 943.8 -0.4 54
2019-04-10 13:00:00 12.5 19 Sudoeste 37 Sudoeste 0 944.1 0.2 57
2019-04-10 12:00:00 11.2 21 Sudoeste 41 Sudoeste 0 944.2 0.7 60
2019-04-10 11:00:00 10.3 21 Sudoeste 39 Oeste 0 944.2 1.6 61
2019-04-10 10:00:00 9.9 17 Sudoeste 36 Sudoeste 0 943.9 1.2 66
2019-04-10 09:00:00 9.1 8 Sudoeste 49 Sudoeste 0 943.5 0.5 72
2019-04-10 08:00:00 7.5 21 Sudoeste 44 Sudoeste 0 942.6 -0.6 78
2019-04-10 07:00:00 7.9 21 Sudoeste 41 Sudoeste 0 942.7 -0.3 78
2019-04-10 06:00:00 8.4 23 Sudoeste 41 Sudoeste 0 943 -0.5 75
2019-04-10 05:00:00 8.8 22 Sudoeste 39 Sudoeste 0 943.2 -0.7 72
2019-04-10 04:00:00 9.5 28 Sudoeste 46 Sur 0 943 -0.9 70
2019-04-10 03:00:00 9.6 25 Sudoeste 40 Sudoeste 0 943.5 -0.4 71
2019-04-10 02:00:00 9.5 19 Sudoeste 41 Sudoeste 0 943.9 -0.4 71
2019-04-10 01:00:00 9.7 24 Sudoeste 42 Sudoeste 0 943.9 0 72
2019-04-10 00:00:00 9 14 Sudoeste 25 Sudoeste 0 943.9 0.6 78
2019-04-09 23:00:00 8.7 11 Oeste 24 Sudoeste 0 944.3 1.7 80
2019-04-09 22:00:00 9.5 17 Sudoeste 28 Sudoeste 0 943.9 0.3 80
2019-04-09 21:00:00 9.1 13 Sur 25 Sudoeste 0 943.3 0.3 82
2019-04-09 20:00:00 10.2 12 Sudoeste 28 Sudoeste 0.3 942.6 -0.8 82
2019-04-09 19:00:00 10.1 19 Sudoeste 31 Sudoeste 0.5 943.6 0.8 71
2019-04-09 18:00:00 12.2 17 Sur 32 Sudoeste 0.3 943 -0.7 64
2019-04-09 17:00:00 9.8 28 Sur 52 Sudoeste 0.5 943.4 -0.6 63
2019-04-09 16:00:00 14.3 14 Sudoeste 41 Sur 0 942.8 -1.6 42
2019-04-09 15:00:00 14 18 Sur 37 Sur 0 943.7 -1 44
2019-04-09 14:00:00 13.1 18 Sur 42 Sudoeste 0 944 -0.9 47
2019-04-09 13:00:00 13 19 Sudoeste 34 Sudoeste 0 944.4 -0.6 49
2019-04-09 12:00:00 12.2 22 Sudoeste 39 Sudoeste 0 944.7 -0.3 54
2019-04-09 11:00:00 11.1 15 Sudoeste 34 Sudoeste 0 944.9 0.4 61
2019-04-09 10:00:00 10 19 Sudoeste 37 Sudoeste 0 945 1 63
2019-04-09 09:00:00 8.5 18 Sudoeste 30 Sudoeste 0 945 1.1 75
2019-04-09 08:00:00 7.7 17 Oeste 30 Sudoeste 0 944.5 0.4 75
2019-04-09 07:00:00 7.8 16 Sudoeste 30 Oeste 0 944 -0.4 76
2019-04-09 06:00:00 8.6 19 Sudoeste 37 Sudoeste 0 943.9 0 76
2019-04-09 05:00:00 8.3 14 Sudoeste 22 Sudoeste 0 944.1 -0.1 83
2019-04-09 04:00:00 8.7 13 Sudoeste 38 Sudoeste 0 944.4 -0.6 83
2019-04-09 03:00:00 7.9 3 Noroeste 14 Sudoeste 0 943.9 0.1 92
2019-04-09 02:00:00 8.2 8 Oeste 36 Sudoeste 0.9 944.2 0.3 92
2019-04-09 01:00:00 9.1 24 Sudoeste 40 Oeste 2.9 945 1.2 82
2019-04-09 00:00:00 11.4 6 Sudoeste 23 Sudoeste 0 943.8 0.5 66
2019-04-08 23:00:00 12.2 11 Sur 29 Sur 0 943.9 0.5 62
2019-04-08 22:00:00 12.6 10 Sur 26 Sur 0 943.8 0.3 66
2019-04-08 21:00:00 13.2 6 Sur 23 Sudoeste 0 943.3 -0.1 61
2019-04-08 20:00:00 14.1 12 Sur 22 Sudoeste 0 943.4 0 55
2019-04-08 19:00:00 14.9 16 Sudoeste 33 Sudoeste 0 943.5 0.2 55
2019-04-08 18:00:00 14.7 15 Sudoeste 41 Sudoeste 0 943.4 -0.1 57
2019-04-08 17:00:00 15.6 17 Sudoeste 31 Sudoeste 0 943.4 -0.5 55
2019-04-08 16:00:00 16.3 18 Sur 32 Sur 0 943.3 -0.9 51
2019-04-08 15:00:00 15.7 16 Sudeste 27 Sudeste 0 943.5 -1.2 53
2019-04-08 14:00:00 16.5 15 Sudoeste 32 Sudoeste 0 943.9 -0.8 49
2019-04-08 13:00:00 14.9 14 Sur 26 Sur 0 944.2 -0.8 62
2019-04-08 12:00:00 13.1 9 Sudeste 16 Sudeste 0 944.7 -0.3 77
2019-04-08 11:00:00 11.6 2 Este 6 Este 0 944.7 0.5 91
2019-04-08 10:00:00 9.6 2 Nordeste 11 Oeste 0 945 1 96
2019-04-08 09:00:00 8.5 0 Calma 3 Oeste 0 945 0.7 97
2019-04-08 08:00:00 7.7 0 Calma 5 Noroeste 0 944.2 -0.1 95
2019-04-08 07:00:00 7.2 0 Calma 4 Noroeste 0 944 -0.4 93
2019-04-08 06:00:00 7.9 2 Noroeste 5 Noroeste 0 944.3 -0.5 91
2019-04-08 05:00:00 8.8 0 Calma 4 Sur 0 944.3 -0.7 88
2019-04-08 04:00:00 9.3 3 Sur 5 Sur 0 944.4 -1.1 87
2019-04-08 03:00:00 9.9 0 Calma 4 Sudeste 0 944.8 -0.8 84
2019-04-08 02:00:00 10 0 Calma 3 Nordeste 0 945 -0.4 80
2019-04-08 01:00:00 10.3 0 Calma 6 Noroeste 0 945.5 0.3 75
2019-04-08 00:00:00 10.4 3 Oeste 6 Oeste 0 945.6 0.9 72
2019-04-07 23:00:00 10.6 2 Sudoeste 15 Sudoeste 0 945.4 1.3 69
2019-04-07 22:00:00 11 8 Sur 19 Sur 0 945.2 1.8 62
2019-04-07 21:00:00 11.7 12 Sur 26 Sudoeste 0 944.7 1.7 52
2019-04-07 20:00:00 12.4 15 Sudoeste 31 Sudoeste 0 944.1 1.6 46
2019-04-07 19:00:00 13.2 21 Sudoeste 39 Sudoeste 0 943.4 1.2 44
2019-04-07 18:00:00 14 24 Sur 43 Sudoeste 0 943 1 42
2019-04-07 17:00:00 14.4 23 Sudoeste 53 Sur 0 942.5 0.4 40
2019-04-07 16:00:00 14.1 32 Sudoeste 51 Sur 0 942.2 -0.2 43
2019-04-07 15:00:00 12.9 25 Sudoeste 54 Sudoeste 0 942 -0.3 50
2019-04-07 14:00:00 11.4 26 Sudoeste 47 Sudoeste 0.1 942.1 0.4 67
2019-04-07 13:00:00 8.9 24 Sudoeste 46 Oeste 0.3 942.4 1.6 78
2019-04-07 12:00:00 6.9 25 Oeste 59 Oeste 0.2 942.3 2.1 83
2019-04-07 11:00:00 7.1 26 Sudoeste 50 Sudoeste 0.1 941.7 2.5 84
2019-04-07 10:00:00 7.9 17 Sudoeste 31 Sudoeste 0 940.8 2.3 90
2019-04-07 09:00:00 5.4 8 Oeste 16 Sudoeste 0.1 940.2 2 96
2019-04-07 08:00:00 4.7 7 Sudoeste 15 Oeste 0.7 939.2 1.2 93
2019-04-07 07:00:00 5.1 13 Oeste 24 Sudoeste 1.6 938.5 0.8 89
2019-04-07 06:00:00 5.8 9 Sudoeste 28 Sudoeste 0.2 938.2 0.4 82
2019-04-07 05:00:00 6.4 18 Sudoeste 36 Sudoeste 0 938 0.1 76
2019-04-07 04:00:00 5.9 11 Sudoeste 22 Sudoeste 0 937.7 0 78
2019-04-07 03:00:00 5.7 10 Sur 27 Sur 0 937.8 0.1 75
2019-04-07 02:00:00 6.9 17 Sudoeste 47 Sudoeste 0 937.9 0.5 68
2019-04-07 01:00:00 7 24 Sudoeste 55 Sur 0 937.7 0.4 68
2019-04-07 00:00:00 7.3 30 Sudoeste 56 Sudoeste 0 937.7 0.8 67
2019-04-06 23:00:00 6 11 Sur 24 Sudoeste 0 937.4 0.6 74
2019-04-06 22:00:00 6.4 6 Sur 27 Sudoeste 0 937.3 1.7 74
2019-04-06 21:00:00 6.7 10 Sur 23 Sur 0 936.9 1.3 75
2019-04-06 20:00:00 7.3 14 Sur 51 Sudoeste 0.1 936.8 0.9 74
2019-04-06 19:00:00 11.4 15 Sur 32 Sudoeste 0 935.6 -0.2 51
2019-04-06 18:00:00 10.9 15 Sudoeste 41 Sudoeste 0 935.6 -0.1 57
2019-04-06 17:00:00 9 13 Sudoeste 46 Oeste 0.3 935.9 0 77
2019-04-06 16:00:00 12 24 Sudoeste 47 Sudoeste 0 935.8 -0.2 42
2019-04-06 15:00:00 12 19 Sur 46 Sur 0 935.7 0.1 45
2019-04-06 14:00:00 11.6 33 Sur 57 Sur 0 935.9 0.5 48
2019-04-06 13:00:00 11.6 19 Sur 39 Sudoeste 0 936 0.7 48
2019-04-06 12:00:00 11.1 20 Sur 38 Sur 0 935.6 0.3 51
2019-04-06 11:00:00 10.7 14 Sur 27 Sur 0 935.4 0.4 56
2019-04-06 10:00:00 9.4 6 Sur 16 Sur 0 935.3 1.2 61
2019-04-06 09:00:00 6.8 0 Calma 19 Sudoeste 0 935.3 1.6 73
2019-04-06 08:00:00 5.3 12 Sudoeste 19 Sudoeste 0 935 1.3 78
2019-04-06 07:00:00 5.2 8 Sur 19 Sur 0 934.1 0.2 81
2019-04-06 06:00:00 5.4 12 Sudoeste 32 Sudoeste 0 933.7 -0.3 84
2019-04-06 05:00:00 4.9 2 Sur 8 Sudoeste 0.1 933.7 0.2 89
2019-04-06 04:00:00 5.4 6 Sudoeste 20 Oeste 0.3 933.9 0.1 84
2019-04-06 03:00:00 6.6 9 Sudoeste 32 Sudoeste 0 934 0.3 71
2019-04-06 02:00:00 6.5 17 Sudoeste 34 Sudoeste 0 933.5 -0.3 70
2019-04-06 01:00:00 6.5 14 Sur 25 Sudoeste 0 933.8 1 69
2019-04-06 00:00:00 6.2 16 Sudoeste 25 Sudoeste 0 933.7 1.2 71
2019-04-05 23:00:00 5.3 8 Sur 17 Sur 0 933.8 1.5 81
2019-04-05 22:00:00 4.9 7 Sur 21 Sur 0 932.8 2.4 82
2019-04-05 21:00:00 5.6 14 Sur 46 Sur 0.1 932.5 2.4 80
2019-04-05 20:00:00 7.6 33 Sudoeste 50 Sudoeste 0 932.3 1.6 66
2019-04-05 19:00:00 12 10 Sudoeste 30 Sur 0 930.4 -1.3 61
2019-04-05 18:00:00 10.2 0 Calma 10 Sudoeste 0 930.1 -2.3 68
2019-04-05 17:00:00 9.6 4 Sur 15 Sudoeste 0 930.7 -1.1 71
2019-04-05 16:00:00 9.3 7 Sudoeste 26 Sudoeste 0.1 931.7 -0.1 81
2019-04-05 15:00:00 9.2 9 Sudoeste 21 Oeste 1.7 932.4 -0.2 84
2019-04-05 14:00:00 12.1 7 Sudoeste 18 Sudeste 0 931.8 -1 48
2019-04-05 13:00:00 13.6 4 Sudeste 18 Sur 0 931.8 -0.9 42
2019-04-05 12:00:00 12.4 12 Sur 21 Sur 0 932.6 -0.6 45
2019-04-05 11:00:00 11 8 Sur 17 Sur 0 932.8 -0.5 56
2019-04-05 10:00:00 9 6 Sudeste 8 Sudeste 0 932.7 -0.5 74
2019-04-05 09:00:00 7.9 0 Calma 4 Sudeste 0 933.2 0 94
2019-04-05 08:00:00 6.8 0 Calma 6 Este 0 933.3 0 94
2019-04-05 07:00:00 6.8 0 Calma 5 Sudeste 0 933.2 -0.3 96
2019-04-05 06:00:00 6.8 0 Calma 4 Norte 0 933.2 -0.8 95
2019-04-05 05:00:00 6.3 0 Calma 5 Noroeste 0 933.3 -0.8 93
2019-04-05 04:00:00 6.9 0 Calma 7 Sudeste 0 933.5 -0.6 90
2019-04-05 03:00:00 7.8 0 Calma 8 Sudeste 0 934 -0.1 88
2019-04-05 02:00:00 8.4 4 Sudeste 12 Sudeste 0 934.1 -0.2 86
2019-04-05 01:00:00 8.8 5 Sudeste 15 Este 0 934.1 0.3 84
2019-04-05 00:00:00 8.9 3 Este 16 Este 0 934.1 1 80
2019-04-04 23:00:00 9.6 4 Este 22 Sudeste 0 934.3 1.5 73
2019-04-04 22:00:00 10.4 9 Sudeste 31 Sudeste 0 933.8 1.2 68
2019-04-04 21:00:00 11.2 8 Este 32 Sudeste 0 933.1 0.5 63
2019-04-04 20:00:00 13.3 10 Este 32 Este 0 932.8 -0.3 44
2019-04-04 19:00:00 15.9 12 Este 22 Este 0 932.6 -1 30
2019-04-04 18:00:00 16.1 7 Este 19 Sudeste 0 932.6 -2.1 29
2019-04-04 17:00:00 15.4 5 Este 18 Este 0 933.1 -2.2 29
2019-04-04 16:00:00 14.3 5 Nordeste 15 Sudeste 0 933.6 -2.2 30
2019-04-04 15:00:00 13.7 5 Norte 15 Noroeste 0 934.7 -1.3 30
2019-04-04 14:00:00 12.9 4 Noroeste 18 Noroeste 0 935.3 -0.4 31
2019-04-04 13:00:00 11.7 7 Noroeste 21 Noroeste 0 935.8 0.3 32
2019-04-04 12:00:00 10.9 13 Noroeste 26 Noroeste 0 936 0.9 34
2019-04-04 11:00:00 9.8 14 Noroeste 24 Noroeste 0 935.7 1.1 35
2019-04-04 10:00:00 8.2 7 Oeste 20 Oeste 0 935.5 1.4 52
2019-04-04 09:00:00 6.4 12 Oeste 22 Oeste 0 935.1 1.8 58
2019-04-04 08:00:00 4.7 10 Oeste 18 Oeste 0 934.6 1.3 61
2019-04-04 07:00:00 5.7 10 Oeste 16 Oeste 0 934.1 0.9 55
2019-04-04 06:00:00 6.5 14 Oeste 24 Oeste 0 933.3 0 50
2019-04-04 05:00:00 7.9 15 Oeste 26 Oeste 0 933.3 -0.3 44
2019-04-04 04:00:00 8.6 12 Oeste 20 Oeste 0 933.2 -0.7 42
2019-04-04 03:00:00 9.4 10 Oeste 20 Oeste 0 933.3 -0.6 42
2019-04-04 02:00:00 9.8 14 Oeste 23 Oeste 0 933.6 -0.3 43
2019-04-04 01:00:00 10.5 10 Oeste 23 Oeste 0 933.9 1.2 42
2019-04-04 00:00:00 11.9 14 Oeste 35 Oeste 0 933.9 1.7 40
2019-04-03 23:00:00 14.1 21 Sudoeste 39 Oeste 0 933.9 1.7 37
2019-04-03 22:00:00 15.2 13 Oeste 27 Sudoeste 0 932.7 0.4 38
2019-04-03 21:00:00 15.5 10 Sudoeste 27 Sudoeste 0 932.2 -0.5 38
2019-04-03 20:00:00 17 13 Sudoeste 36 Sudoeste 0 932.2 -0.8 34
2019-04-03 19:00:00 18.6 16 Sur 35 Sudoeste 0 932.3 -1.5 31
2019-04-03 18:00:00 20.1 18 Sudoeste 38 Sudoeste 0 932.7 -2.4 29
2019-04-03 17:00:00 20.4 19 Sur 39 Sur 0 933 -3.3 28
2019-04-03 16:00:00 20.3 23 Sur 44 Sudeste 0 933.8 -3.3 31
2019-04-03 15:00:00 19.6 22 Sur 35 Sudeste 0 935.1 -3.1 33
2019-04-03 14:00:00 18.7 18 Sudeste 35 Sur 0 936.3 -2.8 35
2019-04-03 13:00:00 17.9 19 Sudeste 37 Este 0 937.1 -2.5 41
2019-04-03 12:00:00 16.4 8 Este 23 Sur 0 938.2 -1.8 52
2019-04-03 11:00:00 14.1 9 Este 14 Este 0 939.1 -1 72
2019-04-03 10:00:00 11.7 2 Norte 7 Nordeste 0 939.6 -0.8 92
2019-04-03 09:00:00 8.9 0 Calma 8 Oeste 0 940 -0.7 97
2019-04-03 08:00:00 7.2 3 Oeste 5 Oeste 0 940.1 -1 96
2019-04-03 07:00:00 7.4 0 Calma 4 Sudoeste 0 940.4 -1.5 95
2019-04-03 06:00:00 8.6 0 Calma 9 Sudoeste 0 940.7 -2 95
2019-04-03 05:00:00 8.7 3 Oeste 4 Oeste 0 941.1 -2.3 95
2019-04-03 04:00:00 9.1 0 Calma 3 Nordeste 0 941.9 -1.7 95
2019-04-03 03:00:00 9.4 0 Calma 2 Oeste 0 942.7 -1.5 94
2019-04-03 02:00:00 10.4 0 Calma 5 Sudoeste 0 943.4 -1.1 91
2019-04-03 01:00:00 11.5 0 Calma 0 Calma 0 943.6 -0.5 88
2019-04-03 00:00:00 12.1 3 Sudeste 10 Sudoeste 0 944.2 0.8 84
2019-04-02 23:00:00 12 5 Oeste 11 Sudoeste 0 944.5 1.2 84
2019-04-02 22:00:00 11.9 5 Sudoeste 16 Sudoeste 0 944.1 1.4 81
2019-04-02 21:00:00 12.9 7 Sudoeste 13 Noroeste 1.5 943.4 0.5 78
2019-04-02 20:00:00 13.9 10 Sudoeste 22 Sudoeste 3.1 943.3 -0.3 60
2019-04-02 19:00:00 18.3 8 Nordeste 16 Este 0 942.7 -1.5 39
2019-04-02 18:00:00 18.1 2 Oeste 21 Sur 0 942.9 -1.9 41
2019-04-02 17:00:00 17.9 7 Sur 18 Sudoeste 0 943.6 -1.7 44
2019-04-02 16:00:00 17.7 4 Sudoeste 19 Sur 0 944.2 -1.8 44
2019-04-02 15:00:00 17 9 Sur 19 Sur 0 944.8 -1.6 46
2019-04-02 14:00:00 16.7 9 Sudoeste 17 Sur 0 945.3 -1.1 48
2019-04-02 13:00:00 15.3 9 Sur 21 Sudoeste 0 946 -0.1 55
2019-04-02 12:00:00 14.8 9 Sur 20 Sur 0 946.4 0.1 66
2019-04-02 11:00:00 12.6 6 Sudoeste 15 Oeste 0 946.4 0.4 95
2019-04-02 10:00:00 10.5 3 Sudoeste 8 Sudoeste 0 946.1 0.7 99
2019-04-02 09:00:00 9.3 3 Oeste 8 Este 0 946.3 0.8 99
2019-04-02 08:00:00 9.1 3 Este 8 Este 0 946 0 99
2019-04-02 07:00:00 9.4 3 Este 7 Este 0 945.4 -0.7 99
2019-04-02 06:00:00 9.7 0 Calma 4 Este 0 945.5 -1.1 99
2019-04-02 05:00:00 10 3 Este 10 Este 0 946 -1 99
2019-04-02 04:00:00 10.3 4 Nordeste 6 Nordeste 0.1 946.1 -1.1 99
2019-04-02 03:00:00 10.4 2 Este 7 Este 0 946.6 -0.4 99
2019-04-02 02:00:00 10.3 0 Calma 8 Sudoeste 0 947 0.1 99
2019-04-02 01:00:00 10 5 Sudoeste 8 Sudoeste 0.6 947.2 1.1 99
2019-04-02 00:00:00 9.7 4 Sudeste 6 Sudeste 0 947 1.5 99
2019-04-01 23:00:00 9.5 0 Calma 8 Este 0 946.9 2.1 99
2019-04-01 22:00:00 9.6 6 Este 15 Noroeste 1.8 946.1 2.1 98
2019-04-01 21:00:00 9.7 8 Sudoeste 16 Nordeste 5.3 945.5 1.7 96
2019-04-01 20:00:00 10.6 9 Nordeste 23 Nordeste 2.4 944.8 0.9 90
2019-04-01 19:00:00 13.7 11 Noroeste 21 Norte 0 944 0.1 71
2019-04-01 18:00:00 14.7 8 Oeste 19 Oeste 0 943.8 -0.2 68
2019-04-01 17:00:00 14 12 Oeste 21 Oeste 0 943.9 -0.6 76
2019-04-01 16:00:00 13.4 10 Sudoeste 22 Sudoeste 0 943.9 -1 72
2019-04-01 15:00:00 14.7 5 Oeste 12 Noroeste 0 944 -1 61
2019-04-01 14:00:00 15.1 2 Norte 13 Oeste 0 944.5 -0.1 62
2019-04-01 13:00:00 14.9 2 Norte 13 Norte 0 944.9 0.5 69
2019-04-01 12:00:00 13.5 4 Oeste 13 Oeste 0 945 1.1 83
2019-04-01 11:00:00 11.1 5 Noroeste 9 Noroeste 0 944.6 1.4 99
2019-04-01 10:00:00 10.3 0 Calma 3 Oeste 0 944.4 1.5 99
2019-04-01 09:00:00 9.9 0 Calma 5 Oeste 0 943.9 1.1 99
2019-04-01 08:00:00 9.5 4 Oeste 9 Oeste 0 943.2 0.3 99
2019-04-01 07:00:00 9.7 0 Calma 6 Noroeste 0 942.9 -0.1 98
2019-04-01 06:00:00 9.9 4 Oeste 7 Oeste 0 942.8 -0.2 98
2019-04-01 05:00:00 9.9 0 Calma 4 Sudoeste 0 942.9 -0.2 98
2019-04-01 04:00:00 9.8 2 Sudoeste 5 Sudoeste 0 943 -0.1 98
2019-04-01 03:00:00 9.8 0 Calma 6 Sudoeste 0 943 -0.1 98
2019-04-01 02:00:00 9.9 0 Calma 6 Oeste 0 943.1 0.2 97
2019-04-01 01:00:00 9.8 3 Oeste 6 Oeste 0 943.1 0.5 97
2019-04-01 00:00:00 9.9 3 Oeste 15 Noroeste 0 943.1 1.3 98
2019-03-31 23:00:00 9.9 10 Oeste 19 Oeste 0 942.9 1.4 97
2019-03-31 22:00:00 10.2 11 Oeste 29 Oeste 0 942.6 1.1 97
2019-03-31 21:00:00 10.2 8 Noroeste 14 Noroeste 0 941.8 0.4 99
2019-03-31 20:00:00 10.3 7 Oeste 15 Oeste 0 941.5 0 99
2019-03-31 19:00:00 10.4 6 Oeste 12 Oeste 0 941.5 -0.4 99
2019-03-31 18:00:00 10.2 5 Oeste 9 Oeste 0.2 941.4 -1.2 99
2019-03-31 17:00:00 9.9 6 Oeste 10 Oeste 2 941.5 -1.9 99
2019-03-31 16:00:00 9.7 5 Oeste 9 Sudoeste 2.1 941.9 -1.9 99
2019-03-31 15:00:00 9.5 5 Oeste 11 Sudoeste 2.5 942.6 -1.7 99
2019-03-31 14:00:00 9.4 0 Calma 12 Noroeste 2.3 943.4 -0.9 99
2019-03-31 13:00:00 9.2 5 Oeste 15 Sudoeste 0.6 943.8 -0.5 99
2019-03-31 12:00:00 8.6 5 Sudoeste 14 Sudoeste 0.7 944.3 -0.2 99
2019-03-31 11:00:00 7.9 5 Sudoeste 18 Sudoeste 0.9 944.3 -0.2 99
2019-03-31 10:00:00 7.5 5 Sudoeste 13 Sudoeste 1.8 944.3 -0.2 99
2019-03-31 09:00:00 7 7 Sudoeste 14 Sudoeste 3.2 944.5 -0.1 99
2019-03-31 08:00:00 7 6 Oeste 14 Oeste 2 944.5 -1 99
2019-03-31 07:00:00 7.1 4 Oeste 15 Oeste 1.5 944.5 -2 99
2019-03-31 06:00:00 6.8 9 Oeste 14 Oeste 1.5 944.6 -2.9 95
2019-03-31 05:00:00 7.8 6 Oeste 13 Noroeste 0.2 945.5 -2.4 85
2019-03-31 03:00:00 8.9 3 Norte 10 Nordeste 0 947.5 -0.7 90
2019-03-31 01:00:00 9 5 Nordeste 11 Nordeste 0 947.9 -0.3 90
2019-03-31 00:00:00 9 0 Calma 5 Norte 0 948 -0.2 89
2019-03-30 23:00:00 9.4 3 Norte 15 Norte 0 948.2 0.2 83
2019-03-30 22:00:00 9.7 0 Calma 10 Norte 0 948.2 0.3 82
2019-03-30 21:00:00 10.9 5 Norte 18 Nordeste 0 948.2 0.8 74
2019-03-30 20:00:00 11.7 12 Nordeste 21 Nordeste 0 948 1 66
2019-03-30 19:00:00 13.4 7 Norte 30 Nordeste 0 947.9 0.9 45
2019-03-30 18:00:00 14.7 16 Nordeste 33 Este 0 947.4 -0.7 43
2019-03-30 17:00:00 16.7 15 Nordeste 29 Nordeste 0 947 -2.1 40
2019-03-30 16:00:00 17.2 8 Norte 26 Nordeste 0 947 -3 39
2019-03-30 15:00:00 16.7 8 Norte 24 Norte 0 948.1 -3.1 40
2019-03-30 14:00:00 15.5 9 Norte 25 Nordeste 0 949.1 -2.9 42
2019-03-30 13:00:00 14.1 10 Nordeste 22 Nordeste 0 950 -2.2 49
2019-03-30 12:00:00 12.2 6 Nordeste 18 Nordeste 0 951.2 -0.8 59
2019-03-30 11:00:00 10.2 8 Nordeste 16 Nordeste 0 952 -0.1 68
2019-03-30 10:00:00 9 5 Noroeste 14 Noroeste 0 952.2 0.1 80
2019-03-30 09:00:00 7.4 6 Noroeste 14 Noroeste 0 952 0.3 91
2019-03-30 08:00:00 5.4 4 Oeste 13 Oeste 0 952.1 0.4 96
2019-03-30 07:00:00 4.4 6 Oeste 10 Oeste 0 952.1 -0.3 95
2019-03-30 06:00:00 4 4 Oeste 10 Oeste 0 951.7 -1.2 94
2019-03-30 05:00:00 4.9 5 Oeste 12 Oeste 0 951.7 -1.4 93
2019-03-30 04:00:00 5.4 5 Oeste 8 Oeste 0 952.4 -1.6 93
2019-03-30 03:00:00 5.5 4 Oeste 6 Oeste 0 952.9 -1.5 93
2019-03-30 02:00:00 5.4 0 Calma 4 Sudoeste 0 953.1 -1.6 91
2019-03-30 01:00:00 6.1 0 Calma 3 Oeste 0 954 -0.5 87
2019-03-30 00:00:00 6.8 0 Calma 10 Nordeste 0 954.4 0.3 80
2019-03-29 23:00:00 7.7 3 Norte 11 Nordeste 0 954.7 1.4 72
2019-03-29 22:00:00 8.5 6 Nordeste 15 Nordeste 0 954.5 1.8 67
2019-03-29 21:00:00 9.2 9 Nordeste 22 Nordeste 0 954.1 1.7 61
2019-03-29 20:00:00 10.3 12 Nordeste 26 Nordeste 0 953.3 0.8 53
2019-03-29 19:00:00 12.4 11 Nordeste 26 Nordeste 0 952.7 0.1 47
2019-03-29 18:00:00 14 11 Nordeste 27 Nordeste 0 952.4 -0.8 42
2019-03-29 17:00:00 15 11 Norte 26 Nordeste 0 952.5 -1.4 41
2019-03-29 16:00:00 14.9 13 Nordeste 26 Nordeste 0 952.6 -2.2 42
2019-03-29 15:00:00 13.6 12 Nordeste 33 Norte 0 953.2 -2.4 44
2019-03-29 14:00:00 13 9 Norte 30 Norte 0 953.9 -2 46
2019-03-29 13:00:00 12.5 12 Nordeste 26 Nordeste 0 954.8 -1.3 50
2019-03-29 12:00:00 12.3 14 Nordeste 27 Norte 0 955.6 -0.2 51
2019-03-29 11:00:00 10.9 6 Norte 17 Noroeste 0 955.9 0.1 58
2019-03-29 10:00:00 8.6 3 Oeste 6 Nordeste 0 956.1 0.8 73
2019-03-29 09:00:00 6.6 2 Oeste 8 Oeste 0 955.8 0.7 86
2019-03-29 08:00:00 3.7 2 Sudoeste 10 Sudoeste 0 955.8 0.7 99
2019-03-29 07:00:00 2.9 5 Sudoeste 10 Sudoeste 0 955.3 0.2 99
2019-03-29 06:00:00 3.4 4 Oeste 9 Oeste 0 955.1 -0.2 99
2019-03-29 05:00:00 4.3 2 Oeste 5 Este 0 955.1 -0.5 99
2019-03-29 04:00:00 4.5 0 Calma 5 Oeste 0 955.1 -0.7 99
2019-03-29 03:00:00 5 3 Sudoeste 6 Sudoeste 0 955.3 -0.9 99
2019-03-29 02:00:00 5.7 3 Oeste 5 Oeste 0 955.6 -0.4 98
2019-03-29 01:00:00 6.3 0 Calma 5 Noroeste 0 955.8 -0.2 93
2019-03-29 00:00:00 7.1 0 Calma 12 Nordeste 0 956.2 0.5 84
2019-03-28 23:00:00 8.2 6 Nordeste 11 Nordeste 0 956 0.8 72
2019-03-28 22:00:00 8.8 2 Norte 19 Norte 0 956 1.3 51
2019-03-28 21:00:00 10.1 10 Nordeste 20 Nordeste 0 955.7 1.5 45
2019-03-28 20:00:00 11.3 7 Norte 24 Nordeste 0 955.2 1.3 41
2019-03-28 19:00:00 13.3 13 Nordeste 24 Nordeste 0 954.7 0.7 32
2019-03-28 18:00:00 15.2 11 Nordeste 30 Nordeste 0 954.2 -0.3 29
2019-03-28 17:00:00 16.3 13 Nordeste 26 Nordeste 0 953.9 -1.3 28
2019-03-28 16:00:00 16.6 10 Nordeste 28 Nordeste 0 954 -1.7 29
2019-03-28 15:00:00 16.2 13 Nordeste 27 Nordeste 0 954.5 -1.9 30
2019-03-28 14:00:00 16.1 13 Nordeste 24 Nordeste 0 955.2 -1.7 31
2019-03-28 13:00:00 15 8 Nordeste 24 Nordeste 0 955.7 -1.2 33
2019-03-28 12:00:00 14.4 6 Este 18 Nordeste 0 956.4 -0.4 34
2019-03-28 11:00:00 12.7 4 Norte 14 Nordeste 0 956.9 0.4 37
2019-03-28 10:00:00 10.6 2 Noroeste 10 Norte 0 956.9 0.8 54
2019-03-28 09:00:00 7 2 Norte 15 Sudoeste 0 956.8 1.2 66
2019-03-28 08:00:00 4 8 Sudoeste 19 Sudoeste 0 956.5 1.1 74
2019-03-28 07:00:00 2.8 13 Sudoeste 19 Sudoeste 0 956.1 0.7 74
2019-03-28 06:00:00 3.6 10 Sudoeste 18 Sudoeste 0 955.6 0.1 72
2019-03-28 05:00:00 4.6 8 Sudoeste 13 Sudoeste 0 955.4 -0.5 72
2019-03-28 04:00:00 4.3 6 Sudoeste 12 Sudoeste 0 955.4 -0.5 70
2019-03-28 03:00:00 4.7 2 Sudoeste 6 Sudoeste 0 955.5 -0.1 68
2019-03-28 02:00:00 5.2 2 Oeste 4 Oeste 0 955.9 0.5 65
2019-03-28 01:00:00 6 0 Calma 4 Sur 0 955.9 1.1 57
2019-03-28 00:00:00 6.6 0 Calma 4 Nordeste 0 955.6 1.4 50
2019-03-27 23:00:00 7.9 2 Nordeste 16 Nordeste 0 955.4 2.1 48
2019-03-27 22:00:00 8.8 8 Nordeste 17 Nordeste 0 954.8 2.3 48
2019-03-27 21:00:00 9.8 10 Nordeste 23 Nordeste 0 954.2 2.4 47
2019-03-27 20:00:00 10.9 8 Nordeste 20 Nordeste 0 953.3 1.9 46
2019-03-27 19:00:00 13.5 9 Norte 24 Nordeste 0 952.5 1 40
2019-03-27 18:00:00 16.1 9 Norte 24 Oeste 0 951.8 0.1 33
2019-03-27 17:00:00 16.5 11 Noroeste 25 Noroeste 0 951.4 -0.9 31
2019-03-27 16:00:00 16.7 7 Norte 25 Oeste 0 951.5 -1.2 31
2019-03-27 15:00:00 16.1 6 Norte 31 Noroeste 0 951.7 -1.4 34
2019-03-27 14:00:00 14.8 9 Oeste 27 Noroeste 0 952.3 -1.1 34
2019-03-27 13:00:00 14.4 5 Nordeste 23 Norte 0 952.7 -0.6 38
2019-03-27 12:00:00 12.9 5 Norte 19 Noroeste 0 953.1 0 44
2019-03-27 11:00:00 10.8 8 Noroeste 18 Oeste 0 953.4 0.4 51
2019-03-27 10:00:00 9.5 3 Noroeste 11 Noroeste 0 953.3 0.8 58
2019-03-27 09:00:00 7.4 4 Oeste 9 Oeste 0 953.1 0.8 69
2019-03-27 08:00:00 4.7 3 Sudoeste 9 Sudoeste 0 953 0.9 86
2019-03-27 07:00:00 2.8 4 Sudoeste 8 Sudoeste 0 952.5 0.3 89
2019-03-27 06:00:00 3.3 0 Calma 4 Sudoeste 0 952.3 -0.3 88
2019-03-27 05:00:00 4.4 3 Sudoeste 6 Sudoeste 0 952.1 -0.8 86
2019-03-27 04:00:00 4.6 3 Sudoeste 10 Oeste 0 952.2 -1.2 88
2019-03-27 03:00:00 5.2 5 Oeste 10 Sudoeste 0 952.6 -0.3 89
2019-03-27 02:00:00 5.5 6 Oeste 11 Noroeste 0 952.9 0.5 88
2019-03-27 01:00:00 6.6 6 Noroeste 18 Noroeste 0 953.4 2 85
2019-03-27 00:00:00 7.2 8 Noroeste 18 Noroeste 0 952.9 2.2 80
2019-03-26 23:00:00 8.1 7 Noroeste 17 Nordeste 0 952.4 2.5 77
2019-03-26 22:00:00 9.5 5 Norte 19 Norte 0 951.4 2 81
2019-03-26 21:00:00 9.9 12 Nordeste 24 Nordeste 0 950.7 2.2 83
2019-03-26 20:00:00 11 10 Nordeste 30 Nordeste 0 949.9 1.9 80
2019-03-26 19:00:00 12.1 17 Nordeste 32 Nordeste 0 949.4 2 70
2019-03-26 18:00:00 14.9 14 Nordeste 32 Nordeste 0 948.5 0.8 55
2019-03-26 17:00:00 16.6 14 Nordeste 27 Nordeste 0 948 -0.3 50
2019-03-26 16:00:00 17.7 11 Norte 29 Nordeste 0 947.4 -1.7 48
2019-03-26 15:00:00 17.9 13 Noroeste 32 Noroeste 0 947.7 -1.9 44
2019-03-26 14:00:00 17.4 11 Noroeste 28 Noroeste 0 948.3 -1.4 45
2019-03-26 13:00:00 16.4 9 Noroeste 33 Oeste 0 949.1 -0.4 48
2019-03-26 12:00:00 14.7 15 Oeste 33 Sudoeste 0 949.6 0.4 52
2019-03-26 11:00:00 13.4 21 Sudoeste 39 Sur 0 949.7 1 54
2019-03-26 10:00:00 12.3 18 Sudeste 35 Sudeste 0 949.5 1.6 51
2019-03-26 09:00:00 10.5 10 Sudeste 19 Sudeste 0 949.2 2 49
2019-03-26 08:00:00 8 3 Este 10 Este 0 948.7 1.6 53
2019-03-26 07:00:00 6.4 3 Este 13 Este 0 947.9 1 53
2019-03-26 06:00:00 7 8 Este 17 Este 0 947.2 0 53
2019-03-26 05:00:00 6.7 7 Este 15 Este 0 947.1 -0.9 53
2019-03-26 04:00:00 7.7 10 Este 16 Este 0 946.9 -1.2 51
2019-03-26 03:00:00 7.7 7 Este 11 Este 0 947.2 -1 50
2019-03-26 02:00:00 8.4 3 Este 6 Este 0 948 0 47
2019-03-26 01:00:00 9.5 0 Calma 6 Este 0 948.1 0 44
2019-03-26 00:00:00 9.9 3 Este 4 Este 0 948.2 0.6 43
2019-03-25 23:00:00 10.3 0 Calma 6 Oeste 0 948 0.8 41
2019-03-25 22:00:00 10.8 3 Norte 7 Noroeste 0 948.1 1.5 38
2019-03-25 21:00:00 13 4 Noroeste 17 Sudoeste 0 947.6 1.3 34
2019-03-25 20:00:00 15 9 Sudoeste 24 Sudoeste 0 947.2 0.8 32
2019-03-25 19:00:00 17.9 14 Sudoeste 23 Sudoeste 0 946.6 -0.5 30
2019-03-25 18:00:00 20.1 9 Oeste 17 Sudoeste 0 946.3 -1.6 27
2019-03-25 17:00:00 20.8 6 Sudoeste 18 Oeste 0 946.4 -2.4 26
2019-03-25 16:00:00 20.7 0 Calma 21 Sudoeste 0 947.1 -2.5 26
2019-03-25 15:00:00 20.3 9 Oeste 18 Oeste 0 947.9 -2.5 27
2019-03-25 14:00:00 19.7 10 Oeste 19 Oeste 0 948.8 -2.2 28
2019-03-25 13:00:00 18.9 4 Oeste 20 Sudoeste 0 949.6 -1.4 30
2019-03-25 12:00:00 17.8 6 Sur 18 Sudoeste 0 950.4 -0.5 31
2019-03-25 11:00:00 16.5 2 Sur 11 Sudoeste 0 951 0.2 35
2019-03-25 10:00:00 13.2 3 Nordeste 11 Este 0 951 0.4 44
2019-03-25 09:00:00 10.6 6 Este 14 Este 0 950.9 0.5 53
2019-03-25 08:00:00 7.8 6 Este 15 Nordeste 0 950.8 0.4 59
2019-03-25 07:00:00 6.3 8 Este 15 Nordeste 0 950.6 0.1 62
2019-03-25 06:00:00 6.8 9 Nordeste 21 Este 0 950.4 -0.6 63
2019-03-25 05:00:00 6.8 8 Nordeste 20 Este 0 950.4 -1.2 63
2019-03-25 04:00:00 7.5 10 Este 18 Este 0 950.5 -1.1 61
2019-03-25 03:00:00 7.2 10 Este 19 Este 0 951 -1 60
2019-03-25 02:00:00 8.2 8 Este 13 Este 0 951.6 -0.4 58
2019-03-25 01:00:00 8.6 4 Este 8 Nordeste 0 951.6 -0.4 56
2019-03-25 00:00:00 9.1 0 Calma 2 Este 0 952 -0.1 53
2019-03-24 23:00:00 10.1 0 Calma 0 Calma 0 952 0.4 51
2019-03-24 22:00:00 11.1 0 Calma 3 Oeste 0 952 0.6 47
2019-03-24 21:00:00 12 0 Calma 9 Oeste 0 952.1 1 45
2019-03-24 20:00:00 14 6 Sudoeste 19 Sudoeste 0 951.6 0.7 43
2019-03-24 19:00:00 15.5 10 Sudoeste 22 Oeste 0 951.4 0.2 41
2019-03-24 18:00:00 17.8 11 Sudoeste 25 Oeste 0 951.1 -0.6 39
2019-03-24 17:00:00 18.3 7 Sudoeste 30 Sudoeste 0 950.9 -1.3 39
2019-03-24 16:00:00 18.8 7 Sudoeste 26 Oeste 0 951.2 -1.9 39
2019-03-24 15:00:00 18.1 8 Oeste 23 Oeste 0 951.7 -2.1 44
2019-03-24 14:00:00 16.7 8 Sudoeste 19 Sudoeste 0 952.2 -1.6 46
2019-03-24 13:00:00 16.9 8 Sudoeste 17 Oeste 0 953.1 -0.8 47
2019-03-24 12:00:00 14.5 8 Oeste 14 Noroeste 0 953.8 0.1 54
2019-03-24 11:00:00 14.4 5 Sur 13 Sudoeste 0 953.8 0.3 56
2019-03-24 10:00:00 12 0 Calma 9 Nordeste 0 953.9 0.9 63
2019-03-24 09:00:00 8.7 5 Este 13 Este 0 953.7 0.7 78
2019-03-24 08:00:00 6.1 10 Este 15 Este 0 953.5 0.6 88
2019-03-24 07:00:00 4.7 0 Calma 12 Este 0 953 0.2 89
2019-03-24 06:00:00 5.1 2 Este 11 Este 0 953 -0.2 89
2019-03-24 05:00:00 5.4 5 Este 12 Este 0 952.9 -0.5 89
2019-03-24 04:00:00 6.4 6 Este 12 Nordeste 0 952.8 -0.7 88
2019-03-24 03:00:00 5.5 4 Este 8 Este 0 953.2 -0.6 88
2019-03-24 02:00:00 6.2 0 Calma 10 Este 0 953.4 -1 85
2019-03-24 01:00:00 7.6 8 Este 12 Sudeste 0 953.5 -0.9 84
2019-03-24 00:00:00 7.5 5 Este 7 Este 0 953.8 -0.3 81
2019-03-23 23:00:00 8 0 Calma 3 Norte 0 954.4 0.7 76
2019-03-23 22:00:00 8.8 0 Calma 3 Sur 0 954.4 1.2 72
2019-03-23 21:00:00 10.1 0 Calma 9 Oeste 0 954.1 1.2 70
2019-03-23 20:00:00 11.1 4 Oeste 9 Oeste 0 953.7 0.5 66
2019-03-23 19:00:00 12 5 Noroeste 10 Noroeste 0 953.2 -0.4 63
2019-03-23 18:00:00 13.6 5 Oeste 11 Oeste 0 952.9 -1.2 61
2019-03-23 17:00:00 13 6 Oeste 13 Oeste 0 953.2 -1.3 63
2019-03-23 16:00:00 12.8 6 Sudoeste 17 Oeste 0 953.6 -1.1 63
2019-03-23 15:00:00 12.6 8 Sudoeste 18 Sudoeste 0 954.1 -1.1 63
2019-03-23 14:00:00 12.5 10 Oeste 20 Oeste 0 954.5 -1.1 59
2019-03-23 13:00:00 13.3 6 Sudoeste 16 Sur 0 954.7 -1 56
2019-03-23 12:00:00 12.2 7 Sur 18 Sudeste 0 955.2 -0.3 56
2019-03-23 11:00:00 11.2 8 Sur 15 Sur 0 955.6 0.4 55
2019-03-23 10:00:00 10.3 8 Sudeste 15 Sudeste 0 955.7 1 55
2019-03-23 09:00:00 9.6 3 Sur 10 Sudeste 0 955.5 0.7 58
2019-03-23 08:00:00 8.3 3 Sudeste 14 Este 0 955.2 0.4 61
2019-03-23 07:00:00 8.2 10 Este 17 Este 0 954.7 -0.1 61
2019-03-23 06:00:00 7.7 6 Nordeste 15 Nordeste 0 954.8 -0.3 63
2019-03-23 05:00:00 7.4 9 Este 15 Este 0 954.8 -0.4 62
2019-03-23 04:00:00 7.5 8 Este 14 Este 0 954.8 -0.8 61
2019-03-23 03:00:00 8.2 8 Nordeste 16 Este 0 955.1 -0.6 59
2019-03-23 02:00:00 8.7 8 Este 13 Nordeste 0 955.2 -0.6 58
2019-03-23 01:00:00 9.1 7 Este 13 Este 0 955.6 -0.1 56
2019-03-23 00:00:00 9.9 6 Este 16 Este 0 955.7 0.1 55
2019-03-22 23:00:00 10.2 9 Este 20 Sudeste 0 955.8 0.9 54
2019-03-22 22:00:00 10.5 13 Sudeste 30 Sudeste 0 955.7 1.2 54
2019-03-22 21:00:00 11.4 9 Sudeste 21 Sudeste 0 955.6 1.7 53
2019-03-22 20:00:00 12.5 10 Sudeste 26 Sur 0 954.9 1 51
2019-03-22 19:00:00 13.5 14 Sudeste 26 Sur 0 954.5 0.7 47
2019-03-22 18:00:00 15 14 Sudeste 31 Sudeste 0 953.9 0 42
2019-03-22 17:00:00 15 15 Sudeste 35 Sudeste 0 953.9 -0.6 40
2019-03-22 16:00:00 15.7 16 Sudeste 37 Sur 0 953.8 -1.5 38
2019-03-22 15:00:00 15.8 14 Este 28 Sudeste 0 953.9 -1.9 38
2019-03-22 14:00:00 15.6 13 Este 26 Este 0 954.5 -1.7 38
2019-03-22 13:00:00 13.6 6 Este 24 Sudeste 0 955.3 -1 40
2019-03-22 12:00:00 12.9 10 Este 20 Sudeste 0 955.8 -0.1 43
2019-03-22 11:00:00 10.7 9 Este 25 Este 0 956.2 0.4 48
2019-03-22 10:00:00 9.5 10 Nordeste 17 Nordeste 0 956.3 0.8 55
2019-03-22 09:00:00 6.9 9 Norte 17 Norte 0 955.9 0.7 71
2019-03-22 08:00:00 4 12 Nordeste 20 Nordeste 0 955.8 0.5 82
2019-03-22 07:00:00 2.9 11 Norte 20 Norte 0 955.5 0.1 83
2019-03-22 06:00:00 3.2 13 Norte 20 Norte 0 955.2 -0.6 83
2019-03-22 05:00:00 3.5 9 Norte 17 Norte 0 955.3 -0.7 81
2019-03-22 04:00:00 3.9 12 Norte 19 Norte 0 955.4 -0.7 78
2019-03-22 03:00:00 4.5 10 Norte 15 Norte 0 955.8 -0.6 77
2019-03-22 02:00:00 5.1 6 Nordeste 10 Nordeste 0 956 -0.3 78
2019-03-22 01:00:00 5.7 3 Nordeste 12 Nordeste 0 956.1 -0.2 72
2019-03-22 00:00:00 5.9 7 Nordeste 14 Este 0 956.4 0.4 64
2019-03-21 23:00:00 7 10 Este 20 Este 0 956.3 1 55
2019-03-21 22:00:00 6.8 8 Nordeste 12 Este 0 956.3 1.4 44
2019-03-21 21:00:00 8.3 6 Este 14 Este 0 956 1.6 42
2019-03-21 20:00:00 9.9 10 Este 22 Este 0 955.3 1.4 40
2019-03-21 19:00:00 11 13 Este 29 Este 0 954.9 1.1 38
2019-03-21 18:00:00 11.9 14 Este 34 Este 0 954.4 0.3 38
2019-03-21 17:00:00 13 15 Este 31 Este 0 953.9 -1 35
2019-03-21 16:00:00 13.2 17 Este 35 Nordeste 0 953.8 -1.8 34
2019-03-21 15:00:00 13.6 15 Nordeste 34 Noroeste 0 954.1 -2.2 34
2019-03-21 14:00:00 12.8 15 Norte 34 Norte 0 954.9 -1.5 35
2019-03-21 13:00:00 12.9 8 Norte 30 Norte 0 955.6 -1 38
2019-03-21 12:00:00 11.8 12 Norte 32 Noroeste 0 956.3 -0.2 40
2019-03-21 11:00:00 10.1 12 Noroeste 26 Noroeste 0 956.4 0 47
2019-03-21 10:00:00 8.4 4 Sudoeste 15 Oeste 0 956.6 0.6 61
2019-03-21 09:00:00 6.5 8 Oeste 13 Oeste 0 956.5 1 74
2019-03-21 08:00:00 3.6 4 Oeste 13 Oeste 0 956.4 1 89
2019-03-21 07:00:00 2.6 4 Oeste 18 Oeste 0 956 0.5 88
2019-03-21 06:00:00 2.7 13 Oeste 21 Oeste 0 955.5 -0.7 86
2019-03-21 05:00:00 3.4 8 Oeste 15 Oeste 0 955.4 -0.9 84
2019-03-21 04:00:00 3.6 5 Oeste 12 Oeste 0 955.5 -1.2 78
2019-03-21 03:00:00 3.8 7 Noroeste 10 Noroeste 0 956.2 -0.6 75
2019-03-21 02:00:00 4.4 0 Calma 5 Noroeste 0 956.3 -0.5 70
2019-03-21 01:00:00 6.4 3 Norte 9 Norte 0 956.7 -0.1 65
2019-03-21 00:00:00 7.3 7 Norte 14 Norte 0 956.8 0.6 61
2019-03-20 23:00:00 8 6 Norte 18 Norte 0 956.8 1.4 61
2019-03-20 22:00:00 8.8 4 Norte 12 Nordeste 0 956.8 2 63
2019-03-20 21:00:00 8.8 5 Nordeste 16 Nordeste 0 956.2 2 63
2019-03-20 20:00:00 9.4 5 Nordeste 16 Nordeste 0 955.4 1.1 58
2019-03-20 19:00:00 10.9 8 Este 15 Este 0 954.8 0.4 53
2019-03-20 18:00:00 12 2 Nordeste 14 Este 0 954.2 -0.7 50
2019-03-20 17:00:00 12.2 4 Este 18 Nordeste 0 954.3 -1.2 51
2019-03-20 16:00:00 11.6 9 Norte 30 Nordeste 0 954.4 -1.6 51
2019-03-20 15:00:00 12 7 Nordeste 15 Nordeste 0 954.9 -1.4 54
2019-03-20 14:00:00 10.8 6 Este 15 Nordeste 0 955.5 -1 57
2019-03-20 13:00:00 11 7 Nordeste 18 Norte 0 956 -0.2 59
2019-03-20 12:00:00 10.4 0 Calma 14 Noroeste 0 956.3 0.1 66
2019-03-20 11:00:00 9 10 Noroeste 17 Noroeste 0 956.5 1 66
2019-03-20 10:00:00 7.8 4 Noroeste 12 Oeste 0 956.2 1.5 77
2019-03-20 09:00:00 6.8 6 Noroeste 16 Noroeste 0 956.2 1.9 80
2019-03-20 08:00:00 4.8 8 Oeste 15 Noroeste 0 955.5 1.5 85
2019-03-20 07:00:00 4.6 5 Oeste 12 Oeste 0 954.7 0.7 85
2019-03-20 06:00:00 4.9 6 Noroeste 16 Noroeste 0 954.3 -0.3 82
2019-03-20 05:00:00 5.6 8 Noroeste 16 Noroeste 0 954 -1 84
2019-03-20 04:00:00 6.7 4 Noroeste 9 Noroeste 0 954 -0.9 87
2019-03-20 03:00:00 6.9 4 Noroeste 10 Noroeste 0 954.6 -0.4 85
2019-03-20 02:00:00 7.1 0 Calma 3 Noroeste 0 955 0.2 85
2019-03-20 01:00:00 6.7 0 Calma 5 Sudeste 0 954.9 0.4 83
2019-03-20 00:00:00 7.6 2 Sudeste 10 Este 0 955 1.2 80
2019-03-19 23:00:00 8 5 Este 16 Este 0 954.8 2.2 78
2019-03-19 22:00:00 8.4 6 Este 20 Nordeste 0 954.5 3 75
2019-03-19 21:00:00 9.1 4 Este 18 Este 0 953.8 3.1 71
2019-03-19 20:00:00 10.1 7 Este 17 Este 0 952.6 2.3 59
2019-03-19 19:00:00 13.4 4 Nordeste 17 Nordeste 0 951.5 1.3 38
2019-03-19 18:00:00 13.7 12 Noroeste 26 Noroeste 0 950.7 0 34
2019-03-19 17:00:00 14.4 12 Noroeste 24 Norte 0 950.3 -0.8 34
2019-03-19 16:00:00 14.1 12 Oeste 27 Sudoeste 0 950.2 -1.4 36
2019-03-19 15:00:00 13.9 17 Oeste 31 Sudoeste 0 950.7 -1.3 37
2019-03-19 14:00:00 12.9 13 Oeste 36 Oeste 0 951.1 -0.8 40
2019-03-19 13:00:00 13 17 Oeste 31 Oeste 0 951.6 -0.5 43
2019-03-19 12:00:00 12 17 Oeste 33 Oeste 0 952 -0.3 46
2019-03-19 11:00:00 10.8 16 Oeste 32 Oeste 0 951.9 -0.2 52
2019-03-19 10:00:00 8.4 15 Oeste 28 Sudoeste 0 952.1 0.6 61
2019-03-19 09:00:00 7.6 7 Oeste 23 Oeste 0 952.3 1 62
2019-03-19 08:00:00 7.3 10 Oeste 23 Oeste 0 952.1 0.9 70
2019-03-19 07:00:00 7.2 17 Oeste 25 Oeste 0 951.5 0.1 81
2019-03-19 06:00:00 7.6 8 Oeste 16 Sudoeste 0 951.3 -0.8 93
2019-03-19 05:00:00 7.5 3 Sudoeste 5 Sudoeste 0 951.2 -1.7 92
2019-03-19 04:00:00 7.9 0 Calma 5 Sur 0 951.4 -1.4 89
2019-03-19 03:00:00 8.3 0 Calma 3 Sudoeste 0 952.1 -1.3 86
2019-03-19 02:00:00 8.4 0 Calma 5 Este 0 952.9 -0.3 86
2019-03-19 01:00:00 8.4 3 Este 9 Este 0 952.8 -0.1 86
2019-03-19 00:00:00 8.4 3 Este 10 Nordeste 0 953.4 1.3 86